Terminal Aerodrome Forecast
Issued by NWS Paducah, KY

Home | Current Version | Previous Version | Text Only | Print | Product List | Glossary On
Versions: 1 2 3 4 5 6 7 8 9 10 11 12 13 14 15 16 17
000
FTUS43 KPAH 042336
TAFEVV
TAF
KEVV 042336Z 0500/0524 VRB06KT 6SM -SHRA BR SCT060 BKN120
      TEMPO 0500/0501 4SM -TSRA BKN050CB
     FM050100 02004KT P6SM SCT100 BKN250
     FM050900 04004KT P6SM VCSH SCT050 BKN150
     FM051500 12004KT P6SM VCSH SCT040 BKN100 PROB30 0515/0521 3SM
      TSRA BKN035CB=

USA.gov is the U.S. government's official web portal to all federal, state and local government web resources and services.